createdAt,value
2018-07-31T00:00:55.681Z,6.83
2018-07-31T00:03:24.225Z,6.10
2018-07-31T00:05:52.688Z,6.77
2018-07-31T00:08:21.204Z,5.90
2018-07-31T00:10:49.663Z,6.97
2018-07-31T00:13:18.184Z,5.80
2018-07-31T00:15:47.224Z,6.30
2018-07-31T00:18:15.686Z,7.03
2018-07-31T00:20:44.142Z,5.90
2018-07-31T00:23:12.576Z,5.83
2018-07-31T00:25:41.129Z,6.57
2018-07-31T00:28:09.587Z,6.63
2018-07-31T00:30:37.732Z,5.73
2018-07-31T00:33:06.202Z,5.73
2018-07-31T00:35:34.646Z,6.37
2018-07-31T00:38:03.152Z,6.40
2018-07-31T00:40:31.600Z,6.50
2018-07-31T00:43:00.127Z,6.50
2018-07-31T00:45:28.550Z,6.53
2018-07-31T00:47:57.055Z,6.27
2018-07-31T00:50:25.523Z,6.80
2018-07-31T00:52:53.977Z,6.90
2018-07-31T00:55:22.489Z,7.07
2018-07-31T00:57:50.926Z,6.73
2018-07-31T01:00:19.396Z,6.77
2018-07-31T01:02:47.858Z,6.83
2018-07-31T01:05:16.351Z,7.70
2018-07-31T01:07:45.524Z,6.33
2018-07-31T01:10:14.096Z,7.23
2018-07-31T01:12:42.532Z,7.60
2018-07-31T01:15:11.104Z,7.10
2018-07-31T01:17:39.536Z,7.10
2018-07-31T01:20:08.056Z,6.80
2018-07-31T01:22:36.635Z,7.70
2018-07-31T01:25:05.912Z,7.00
2018-07-31T01:27:34.352Z,6.70
2018-07-31T01:30:03.253Z,7.20
2018-07-31T01:32:31.716Z,6.40
2018-07-31T01:35:00.265Z,7.70
2018-07-31T01:37:28.765Z,6.60
2018-07-31T01:39:57.204Z,7.60
2018-07-31T01:42:25.632Z,7.40
2018-07-31T01:44:54.101Z,7.00
2018-07-31T01:47:22.591Z,7.03
2018-07-31T01:49:51.100Z,7.10
2018-07-31T01:52:19.577Z,7.07
2018-07-31T01:54:48.071Z,8.00
2018-07-31T01:57:16.516Z,6.77
2018-07-31T01:59:45.031Z,7.30
2018-07-31T02:02:13.569Z,7.90
2018-07-31T02:04:41.995Z,7.53
2018-07-31T02:07:10.477Z,7.33
2018-07-31T02:09:39.643Z,7.17
2018-07-31T02:12:08.096Z,7.30
2018-07-31T02:14:36.644Z,6.50
2018-07-31T02:17:05.099Z,6.90
2018-07-31T02:19:33.535Z,8.47
2018-07-31T02:22:01.965Z,8.03
2018-07-31T02:24:30.448Z,7.33
2018-07-31T02:26:58.984Z,7.30
2018-07-31T02:29:32.755Z,7.00
2018-07-31T02:32:01.274Z,7.80
2018-07-31T02:34:29.775Z,8.20
2018-07-31T02:36:58.229Z,7.77
2018-07-31T02:39:26.716Z,7.40
2018-07-31T02:41:55.237Z,7.53
2018-07-31T02:44:23.653Z,8.20
2018-07-31T02:46:52.123Z,7.10
2018-07-31T02:49:20.697Z,6.90
2018-07-31T02:51:49.135Z,6.50
2018-07-31T02:54:17.665Z,7.47
2018-07-31T02:56:46.153Z,7.30
2018-07-31T02:59:14.796Z,7.33
2018-07-31T03:01:43.264Z,8.00
2018-07-31T03:04:11.820Z,7.77
2018-07-31T03:06:40.320Z,7.87
2018-07-31T03:09:10.038Z,7.63
2018-07-31T03:11:38.532Z,7.37
2018-07-31T03:14:07.277Z,7.40
2018-07-31T03:16:36.495Z,6.90
2018-07-31T03:19:05.259Z,7.47
2018-07-31T03:21:33.728Z,8.40
2018-07-31T03:24:02.197Z,7.63
2018-07-31T03:26:30.694Z,7.50
2018-07-31T03:28:59.172Z,7.30
2018-07-31T03:31:27.638Z,6.37
2018-07-31T03:33:56.249Z,7.33
2018-07-31T03:36:24.698Z,6.60
2018-07-31T03:38:53.191Z,7.10
2018-07-31T03:41:21.813Z,6.50
2018-07-31T03:43:50.317Z,7.13
2018-07-31T03:46:18.830Z,7.77
2018-07-31T03:48:47.276Z,7.40
2018-07-31T03:51:16.213Z,7.30
2018-07-31T03:53:44.740Z,7.70
2018-07-31T03:56:13.346Z,7.37
2018-07-31T03:58:41.890Z,7.57
2018-07-31T04:01:10.413Z,8.70
2018-07-31T04:03:38.863Z,7.90
2018-07-31T04:06:07.367Z,9.00
2018-07-31T04:08:35.848Z,7.90
2018-07-31T04:11:04.339Z,8.50
2018-07-31T04:13:32.763Z,7.90
2018-07-31T04:16:01.283Z,8.43
2018-07-31T04:18:29.742Z,10.37
2018-07-31T04:20:58.757Z,8.20
2018-07-31T04:23:27.211Z,8.70
2018-07-31T04:25:55.969Z,8.70
2018-07-31T04:28:24.391Z,9.70
2018-07-31T04:30:53.000Z,8.90
2018-07-31T04:33:21.472Z,8.63
2018-07-31T04:35:49.996Z,8.73
2018-07-31T04:38:18.447Z,9.00
2018-07-31T04:40:46.904Z,10.23
2018-07-31T04:43:15.396Z,8.60
2018-07-31T04:45:44.076Z,7.97
2018-07-31T04:48:12.547Z,8.60
2018-07-31T04:50:41.715Z,8.17
2018-07-31T04:53:10.225Z,8.33
2018-07-31T04:55:38.724Z,9.43
2018-07-31T04:58:07.223Z,7.97
2018-07-31T05:00:36.511Z,9.43
2018-07-31T05:03:05.015Z,8.20
2018-07-31T05:05:33.595Z,9.70
2018-07-31T05:08:02.176Z,8.37
2018-07-31T05:10:30.690Z,8.63
2018-07-31T05:12:59.200Z,8.67
2018-07-31T05:15:27.714Z,8.20
2018-07-31T05:17:56.205Z,8.53
2018-07-31T05:20:24.797Z,8.73
2018-07-31T05:22:53.279Z,7.40
2018-07-31T05:25:22.282Z,7.87
2018-07-31T05:27:50.744Z,7.60
2018-07-31T05:30:19.267Z,6.83
2018-07-31T05:32:47.838Z,7.40
2018-07-31T05:35:17.032Z,7.80
2018-07-31T05:37:46.352Z,7.10
2018-07-31T05:40:14.808Z,7.77
2018-07-31T05:42:44.093Z,7.07
2018-07-31T05:45:12.707Z,8.10
2018-07-31T05:47:41.219Z,7.90
2018-07-31T05:50:10.114Z,6.90
2018-07-31T05:52:39.081Z,7.67
2018-07-31T05:55:07.707Z,7.30
2018-07-31T05:57:36.493Z,7.53
2018-07-31T06:00:06.536Z,7.83
2018-07-31T06:02:35.025Z,7.93
2018-07-31T06:05:03.541Z,7.30
2018-07-31T06:07:32.027Z,7.73
2018-07-31T06:10:00.487Z,7.70
2018-07-31T06:12:28.969Z,7.83
2018-07-31T06:14:57.756Z,7.47
2018-07-31T06:17:26.251Z,8.67
2018-07-31T06:19:54.869Z,8.00
2018-07-31T06:22:23.376Z,7.00
2018-07-31T06:24:51.845Z,7.53
2018-07-31T06:27:20.365Z,7.10
2018-07-31T06:29:48.855Z,7.50
2018-07-31T06:32:17.399Z,7.63
2018-07-31T06:34:45.865Z,7.10
2018-07-31T06:37:14.407Z,7.20
2018-07-31T06:39:43.060Z,7.03
2018-07-31T06:42:11.825Z,7.53
2018-07-31T06:44:40.636Z,7.03
2018-07-31T06:47:09.121Z,7.80
2018-07-31T06:49:37.592Z,6.90
2018-07-31T06:52:06.089Z,7.23
2018-07-31T06:54:34.573Z,7.60
2018-07-31T06:57:03.042Z,7.80
2018-07-31T06:59:31.506Z,6.13
2018-07-31T07:02:00.041Z,6.93
2018-07-31T07:04:28.469Z,7.27
2018-07-31T07:06:56.969Z,6.53
2018-07-31T07:09:25.416Z,7.30
2018-07-31T07:11:53.976Z,6.63
2018-07-31T07:14:22.505Z,6.13
2018-07-31T07:16:51.024Z,6.37
2018-07-31T07:19:19.462Z,6.07
2018-07-31T07:21:47.675Z,6.53
2018-07-31T07:24:16.218Z,6.33
2018-07-31T07:26:44.729Z,6.40
2018-07-31T07:29:13.775Z,6.23
2018-07-31T07:31:42.297Z,5.97
2018-07-31T07:34:10.779Z,6.30
2018-07-31T07:36:39.327Z,7.23
2018-07-31T07:39:10.668Z,6.90
2018-07-31T07:41:39.174Z,6.53
2018-07-31T07:44:08.097Z,6.27
2018-07-31T07:46:36.554Z,6.60
2018-07-31T07:49:05.069Z,5.87
2018-07-31T07:51:33.607Z,6.70
2018-07-31T07:54:02.247Z,5.77
2018-07-31T07:56:30.816Z,6.87
2018-07-31T07:58:59.348Z,6.50
2018-07-31T08:01:27.841Z,6.10
2018-07-31T08:03:57.079Z,6.13
2018-07-31T08:06:25.548Z,5.77
2018-07-31T08:08:54.047Z,5.77
2018-07-31T08:11:22.611Z,5.60
2018-07-31T08:13:51.127Z,6.53
2018-07-31T08:16:19.592Z,5.70
2018-07-31T08:18:48.076Z,5.70
2018-07-31T08:21:16.597Z,6.13
2018-07-31T08:23:45.104Z,5.83
2018-07-31T08:26:13.547Z,6.17
2018-07-31T08:28:41.993Z,6.07
2018-07-31T08:31:10.442Z,6.03
2018-07-31T08:33:39.710Z,6.30
2018-07-31T08:36:08.099Z,6.03
2018-07-31T08:38:37.328Z,5.97
2018-07-31T08:41:05.922Z,5.67
2018-07-31T08:43:34.509Z,6.37
2018-07-31T08:46:03.012Z,4.90
2018-07-31T08:48:31.892Z,5.83
2018-07-31T08:51:00.361Z,5.90
2018-07-31T08:53:28.894Z,6.20
2018-07-31T08:55:57.352Z,4.90
2018-07-31T08:58:25.793Z,5.67
2018-07-31T09:00:54.267Z,5.97
2018-07-31T09:03:22.739Z,5.60
2018-07-31T09:05:51.241Z,5.70
2018-07-31T09:08:19.730Z,5.63
2018-07-31T09:10:48.183Z,5.53
2018-07-31T09:13:16.663Z,6.00
2018-07-31T09:15:45.217Z,6.10
2018-07-31T09:18:13.730Z,5.00
2018-07-31T09:20:42.193Z,5.10
2018-07-31T09:23:10.748Z,5.30
2018-07-31T09:25:45.214Z,5.90
2018-07-31T09:28:14.818Z,5.60
2018-07-31T09:30:48.627Z,5.17
2018-07-31T09:33:17.087Z,4.90
2018-07-31T09:35:45.990Z,5.40
2018-07-31T09:38:14.538Z,5.80
2018-07-31T09:40:43.032Z,6.07
2018-07-31T09:43:11.578Z,5.73
2018-07-31T09:45:40.032Z,5.70
2018-07-31T09:48:08.496Z,5.00
2018-07-31T09:50:37.070Z,5.67
2018-07-31T09:53:05.660Z,5.90
2018-07-31T09:55:34.259Z,5.57
2018-07-31T09:58:02.734Z,5.30
2018-07-31T10:00:36.564Z,5.70
2018-07-31T10:03:05.121Z,5.43
2018-07-31T10:05:33.699Z,5.37
2018-07-31T10:08:02.207Z,5.60
2018-07-31T10:10:30.767Z,5.30
2018-07-31T10:12:59.830Z,5.57
2018-07-31T10:15:28.367Z,4.73
2018-07-31T10:17:56.905Z,5.00
2018-07-31T10:20:25.363Z,5.20
2018-07-31T10:22:53.805Z,4.80
2018-07-31T10:25:22.295Z,4.57
2018-07-31T10:27:50.797Z,5.23
2018-07-31T10:30:19.276Z,4.40
2018-07-31T10:32:47.799Z,5.30
2018-07-31T10:35:17.104Z,4.30
2018-07-31T10:37:45.645Z,4.80
2018-07-31T10:40:14.141Z,4.60
2018-07-31T10:42:42.652Z,5.10
2018-07-31T10:45:11.176Z,4.50
2018-07-31T10:47:39.601Z,5.23
2018-07-31T10:50:08.801Z,4.87
2018-07-31T10:52:37.288Z,4.80
2018-07-31T10:55:05.769Z,4.30
2018-07-31T10:57:34.411Z,4.70
2018-07-31T11:00:02.957Z,4.63
2018-07-31T11:02:31.388Z,4.63
2018-07-31T11:04:59.955Z,4.50
2018-07-31T11:07:28.581Z,5.00
2018-07-31T11:09:57.132Z,5.13
2018-07-31T11:12:25.566Z,4.83
2018-07-31T11:14:54.025Z,4.60
2018-07-31T11:17:22.524Z,4.63
2018-07-31T11:22:45.471Z,4.27
2018-07-31T11:25:14.008Z,3.97
2018-07-31T11:27:42.628Z,4.47
2018-07-31T11:30:11.160Z,3.73
2018-07-31T11:32:39.657Z,3.90
2018-07-31T11:35:08.200Z,3.90
2018-07-31T11:37:36.664Z,4.30
2018-07-31T11:40:05.160Z,3.80
2018-07-31T11:42:33.660Z,3.63
2018-07-31T11:45:02.295Z,4.20
2018-07-31T11:47:30.914Z,3.93
2018-07-31T11:49:59.441Z,3.67
2018-07-31T11:52:27.836Z,3.67
2018-07-31T11:54:56.357Z,3.83
2018-07-31T11:57:24.871Z,4.30
2018-07-31T11:59:53.363Z,4.30
2018-07-31T12:02:21.896Z,3.77
2018-07-31T12:04:50.477Z,3.70
2018-07-31T12:07:18.896Z,3.77
2018-07-31T12:09:47.409Z,4.03
2018-07-31T12:12:15.866Z,3.80
2018-07-31T12:14:45.009Z,3.87
2018-07-31T12:17:13.530Z,4.17
2018-07-31T12:19:42.013Z,3.90
2018-07-31T12:22:10.402Z,3.30
2018-07-31T12:24:38.872Z,3.60
2018-07-31T12:27:07.341Z,3.70
2018-07-31T12:29:35.920Z,3.63
2018-07-31T12:32:04.074Z,4.20
2018-07-31T12:34:32.617Z,3.50
2018-07-31T12:37:01.675Z,4.20
2018-07-31T12:39:30.137Z,3.90
2018-07-31T12:41:58.816Z,4.00
2018-07-31T12:44:27.261Z,3.23
2018-07-31T12:46:55.473Z,3.77
2018-07-31T12:49:24.616Z,3.77
2018-07-31T12:51:53.141Z,3.60
2018-07-31T12:54:21.631Z,3.77
2018-07-31T12:56:50.143Z,4.20
2018-07-31T12:59:18.656Z,3.70
2018-07-31T13:01:47.156Z,4.23
2018-07-31T13:04:15.616Z,3.87
2018-07-31T13:06:44.175Z,3.50
2018-07-31T13:09:12.733Z,3.80
2018-07-31T13:11:41.215Z,3.37
2018-07-31T13:14:09.800Z,3.17
2018-07-31T13:16:38.337Z,3.33
2018-07-31T13:19:06.895Z,3.53
2018-07-31T13:21:35.919Z,3.50
2018-07-31T13:24:04.439Z,2.90
2018-07-31T13:26:32.985Z,3.97
2018-07-31T13:29:01.447Z,3.13
2018-07-31T13:31:30.158Z,3.40
2018-07-31T13:33:58.623Z,3.07
2018-07-31T13:36:27.212Z,3.27
2018-07-31T13:38:55.644Z,3.40
2018-07-31T13:41:24.180Z,2.63
2018-07-31T13:43:52.689Z,2.60
2018-07-31T13:46:21.816Z,3.20
2018-07-31T13:48:51.088Z,2.77
2018-07-31T13:51:19.840Z,2.80
2018-07-31T13:53:48.521Z,3.50
2018-07-31T13:56:16.786Z,2.80
2018-07-31T13:58:45.443Z,3.20
2018-07-31T14:01:14.299Z,3.20
2018-07-31T14:03:42.892Z,3.13
2018-07-31T14:06:11.606Z,2.83
2018-07-31T14:08:40.256Z,3.00
2018-07-31T14:11:09.509Z,2.87
2018-07-31T14:13:38.004Z,2.53
2018-07-31T14:16:06.744Z,3.13
2018-07-31T14:18:35.545Z,3.17
2018-07-31T14:21:04.121Z,2.50
2018-07-31T14:23:32.837Z,2.40
2018-07-31T14:26:01.371Z,2.50
2018-07-31T14:28:29.847Z,2.30
2018-07-31T14:30:58.396Z,2.40
2018-07-31T14:33:26.867Z,2.60
2018-07-31T14:35:55.382Z,2.73
2018-07-31T14:38:23.899Z,3.03
2018-07-31T14:40:52.446Z,3.30
2018-07-31T14:43:21.175Z,2.93
2018-07-31T14:45:49.783Z,2.73
2018-07-31T14:48:18.362Z,2.60
2018-07-31T14:50:46.929Z,3.30
2018-07-31T14:53:15.569Z,2.70
2018-07-31T14:55:44.109Z,3.30
2018-07-31T14:58:12.591Z,2.90
2018-07-31T15:00:41.171Z,2.97
2018-07-31T15:03:10.221Z,3.17
2018-07-31T15:05:38.765Z,3.33
2018-07-31T15:08:07.317Z,3.70
2018-07-31T15:10:36.312Z,3.40
2018-07-31T15:13:04.850Z,2.90
2018-07-31T15:15:33.304Z,3.40
2018-07-31T15:18:01.832Z,3.10
2018-07-31T15:20:30.268Z,4.00
2018-07-31T15:22:58.752Z,3.50
2018-07-31T15:25:27.280Z,4.23
2018-07-31T15:27:55.895Z,4.40
2018-07-31T15:30:24.352Z,4.40
2018-07-31T15:32:52.833Z,4.27
2018-07-31T15:35:21.340Z,4.10
2018-07-31T15:37:56.124Z,4.10
2018-07-31T15:40:24.640Z,4.27
2018-07-31T15:42:53.170Z,4.00
2018-07-31T15:45:21.709Z,3.90
2018-07-31T15:47:50.316Z,3.97
2018-07-31T15:50:18.668Z,4.27
2018-07-31T15:52:47.139Z,4.20
2018-07-31T15:55:15.637Z,4.00
2018-07-31T15:57:44.124Z,4.37
2018-07-31T16:00:12.901Z,3.93
2018-07-31T16:02:41.388Z,4.27
2018-07-31T16:05:09.811Z,4.47
2018-07-31T16:07:38.360Z,4.20
2018-07-31T16:10:07.189Z,3.80
2018-07-31T16:12:35.859Z,4.40
2018-07-31T16:15:04.779Z,4.07
2018-07-31T16:17:33.356Z,4.40
2018-07-31T16:20:01.858Z,4.20
2018-07-31T16:22:30.408Z,4.10
2018-07-31T16:24:58.860Z,4.17
2018-07-31T16:27:27.367Z,4.10
2018-07-31T16:29:55.885Z,5.03
2018-07-31T16:32:25.113Z,4.57
2018-07-31T16:34:53.696Z,3.80
2018-07-31T16:37:22.266Z,4.90
2018-07-31T16:39:50.815Z,4.20
2018-07-31T16:42:19.482Z,4.17
2018-07-31T16:44:47.951Z,4.30
2018-07-31T16:47:16.489Z,4.10
2018-07-31T16:49:44.975Z,4.40
2018-07-31T16:52:13.481Z,4.60
2018-07-31T16:54:41.903Z,4.20
2018-07-31T16:57:10.406Z,4.60
2018-07-31T16:59:39.516Z,4.47
2018-07-31T17:02:08.055Z,4.20
2018-07-31T17:04:36.545Z,4.63
2018-07-31T17:07:04.681Z,4.43
2018-07-31T17:09:33.208Z,5.60
2018-07-31T17:12:01.686Z,4.40
2018-07-31T17:14:30.160Z,8.10
2018-07-31T17:16:58.631Z,4.63
2018-07-31T17:19:27.107Z,4.60
2018-07-31T17:21:55.568Z,12.13
2018-07-31T17:24:24.044Z,14.23
2018-07-31T17:26:53.266Z,4.80
2018-07-31T17:29:22.343Z,5.40
2018-07-31T17:31:50.825Z,4.80
2018-07-31T17:34:19.320Z,4.90
2018-07-31T17:36:47.833Z,4.53
2018-07-31T17:39:16.291Z,4.47
2018-07-31T17:41:44.803Z,4.70
2018-07-31T17:44:13.411Z,5.10
2018-07-31T17:46:41.907Z,4.90
2018-07-31T17:49:10.404Z,5.47
2018-07-31T17:51:38.912Z,4.93
2018-07-31T17:54:07.484Z,4.63
2018-07-31T17:56:35.945Z,5.33
2018-07-31T17:59:04.405Z,5.13
2018-07-31T18:01:32.880Z,4.67
2018-07-31T18:04:01.382Z,5.17
2018-07-31T18:06:29.827Z,5.07
2018-07-31T18:08:58.281Z,5.07
2018-07-31T18:11:26.709Z,5.13
2018-07-31T18:13:55.225Z,4.70
2018-07-31T18:16:23.703Z,5.00
2018-07-31T18:18:52.344Z,4.40
2018-07-31T18:21:20.795Z,5.00
2018-07-31T18:23:49.326Z,4.70
2018-07-31T18:26:17.783Z,4.30
2018-07-31T18:28:46.253Z,5.07
2018-07-31T18:31:14.729Z,4.70
2018-07-31T18:33:43.199Z,5.20
2018-07-31T18:36:11.729Z,5.30
2018-07-31T18:38:40.200Z,5.27
2018-07-31T18:41:08.718Z,4.47
2018-07-31T18:43:37.217Z,4.50
2018-07-31T18:46:05.892Z,5.30
2018-07-31T18:48:34.060Z,5.40
2018-07-31T18:51:02.571Z,5.17
2018-07-31T18:53:31.189Z,5.80
2018-07-31T18:55:59.553Z,5.10
2018-07-31T18:58:28.035Z,5.17
2018-07-31T19:00:56.518Z,4.50
2018-07-31T19:03:24.933Z,6.60
2018-07-31T19:05:53.515Z,5.67
2018-07-31T19:08:22.090Z,5.20
2018-07-31T19:10:50.664Z,4.80
2018-07-31T19:13:19.278Z,4.77
2018-07-31T19:15:47.754Z,5.37
2018-07-31T19:18:16.816Z,5.10
2018-07-31T19:20:45.320Z,4.73
2018-07-31T19:23:13.791Z,4.83
2018-07-31T19:25:42.375Z,5.40
2018-07-31T19:28:10.984Z,5.50
2018-07-31T19:30:39.391Z,6.00
2018-07-31T19:33:07.872Z,6.10
2018-07-31T19:35:36.371Z,5.47
2018-07-31T19:38:04.804Z,5.40
2018-07-31T19:40:33.258Z,5.70
2018-07-31T19:43:01.761Z,6.00
2018-07-31T19:45:30.291Z,5.50
2018-07-31T19:47:58.785Z,6.30
2018-07-31T19:50:27.463Z,5.17
2018-07-31T19:52:56.054Z,6.10
2018-07-31T19:55:25.540Z,5.93
2018-07-31T19:57:54.063Z,5.93
2018-07-31T20:00:22.875Z,6.60
2018-07-31T20:02:52.116Z,6.13
2018-07-31T20:05:20.580Z,5.80
2018-07-31T20:07:49.139Z,6.03
2018-07-31T20:10:17.737Z,5.50
2018-07-31T20:12:46.293Z,6.33
2018-07-31T20:15:14.917Z,7.00
2018-07-31T20:17:43.376Z,5.97
2018-07-31T20:20:11.957Z,6.37
2018-07-31T20:22:40.560Z,5.40
2018-07-31T20:25:09.057Z,6.27
2018-07-31T20:27:37.559Z,6.43
2018-07-31T20:30:06.698Z,5.90
2018-07-31T20:32:35.875Z,6.20
2018-07-31T20:35:04.516Z,5.40
2018-07-31T20:37:33.135Z,6.67
2018-07-31T20:40:02.156Z,7.00
2018-07-31T20:42:30.364Z,6.17
2018-07-31T20:44:58.891Z,5.03
2018-07-31T20:47:27.469Z,6.73
2018-07-31T20:49:56.054Z,5.73
2018-07-31T20:52:24.647Z,6.73
2018-07-31T20:54:53.462Z,5.90
2018-07-31T20:57:22.127Z,6.67
2018-07-31T20:59:50.773Z,6.33
2018-07-31T21:02:19.267Z,6.37
2018-07-31T21:04:47.816Z,5.73
2018-07-31T21:07:16.319Z,6.40
2018-07-31T21:09:45.274Z,6.10
2018-07-31T21:12:13.767Z,6.50
2018-07-31T21:14:42.276Z,6.40
2018-07-31T21:17:11.903Z,5.70
2018-07-31T21:19:40.543Z,6.90
2018-07-31T21:22:09.088Z,5.57
2018-07-31T21:24:37.628Z,5.77
2018-07-31T21:27:06.131Z,5.87
2018-07-31T21:29:34.815Z,5.77
2018-07-31T21:32:03.416Z,7.03
2018-07-31T21:34:31.994Z,5.33
2018-07-31T21:37:00.514Z,6.70
2018-07-31T21:39:29.006Z,5.50
2018-07-31T21:41:57.576Z,6.20
2018-07-31T21:44:26.639Z,6.30
2018-07-31T21:46:55.160Z,6.23
2018-07-31T21:49:23.676Z,5.83
2018-07-31T21:51:52.207Z,7.40
2018-07-31T21:54:20.896Z,6.80
2018-07-31T21:56:49.379Z,6.07
2018-07-31T21:59:19.059Z,7.20
2018-07-31T22:01:47.581Z,6.60
2018-07-31T22:04:16.077Z,6.30
2018-07-31T22:06:44.630Z,5.90
2018-07-31T22:09:13.099Z,6.10
2018-07-31T22:11:41.603Z,6.27
2018-07-31T22:14:10.116Z,6.00
2018-07-31T22:16:38.713Z,6.00
2018-07-31T22:19:07.180Z,6.50
2018-07-31T22:21:35.647Z,6.13
2018-07-31T22:24:04.295Z,6.20
2018-07-31T22:26:32.880Z,6.30
2018-07-31T22:29:01.445Z,6.40
2018-07-31T22:31:30.003Z,6.37
2018-07-31T22:33:58.589Z,6.67
2018-07-31T22:36:27.152Z,6.13
2018-07-31T22:38:56.273Z,6.70
2018-07-31T22:41:24.878Z,5.83
2018-07-31T22:43:53.384Z,7.27
2018-07-31T22:46:21.847Z,6.73
2018-07-31T22:48:50.532Z,6.07
2018-07-31T22:51:19.025Z,7.50
2018-07-31T22:53:47.569Z,7.33
2018-07-31T22:56:16.896Z,6.30
2018-07-31T22:58:45.320Z,6.40
2018-07-31T23:01:13.764Z,6.70
2018-07-31T23:03:42.632Z,6.17
2018-07-31T23:06:11.318Z,6.60
2018-07-31T23:08:39.872Z,5.93
2018-07-31T23:11:08.393Z,7.07
2018-07-31T23:13:36.944Z,6.40
2018-07-31T23:16:05.147Z,6.83
2018-07-31T23:18:33.680Z,7.10
2018-07-31T23:21:02.200Z,6.50
2018-07-31T23:23:30.401Z,7.33
2018-07-31T23:25:58.897Z,7.00
2018-07-31T23:28:27.469Z,6.60
2018-07-31T23:30:55.636Z,7.13
2018-07-31T23:33:24.208Z,6.80
2018-07-31T23:35:52.733Z,7.33
2018-07-31T23:38:21.281Z,6.40
2018-07-31T23:40:49.746Z,7.17
2018-07-31T23:43:18.256Z,6.70
2018-07-31T23:45:46.712Z,6.50
2018-07-31T23:48:15.258Z,7.80
2018-07-31T23:50:43.868Z,6.23
2018-07-31T23:53:12.986Z,6.80
2018-07-31T23:55:41.484Z,7.00
2018-07-31T23:58:09.903Z,7.50
